Time;durP1;ratioP1;P1;durP2;ratioP2;P2;SDS_P1;SDS_P2;PMS_P1;PMS_P2;Temp;Humidity;BMP_temperature;BMP_pressure;BME280_temperature;BME280_humidity;BME280_pressure;Samples;Min_cycle;Max_cycle;Signal;HPM_P1;HPM_P2
2021/01/22 00:03:11;;;;;;;1.30;1.30;;;11.00;94.20;;;;;;10304358;28;20233;-85
2021/01/22 00:08:12;;;;;;;1.50;1.40;;;11.00;93.30;;;;;;10317260;28;20199;-84
2021/01/22 00:13:15;;;;;;;1.40;1.30;;;10.90;93.40;;;;;;10315030;28;20617;-84
2021/01/22 00:18:17;;;;;;;1.50;1.40;;;10.80;94.10;;;;;;10353512;28;20256;-83
2021/01/22 00:23:19;;;;;;;1.20;1.20;;;10.80;94.40;;;;;;10330206;28;20226;-82
2021/01/22 00:28:21;;;;;;;1.13;1.10;;;10.70;93.90;;;;;;10352468;28;20234;-84
2021/01/22 00:33:23;;;;;;;1.23;1.13;;;10.70;94.10;;;;;;10337444;28;20348;-84
2021/01/22 00:38:26;;;;;;;1.30;1.20;;;10.70;94.30;;;;;;10312836;28;20207;-84
2021/01/22 00:43:28;;;;;;;1.00;1.00;;;10.70;94.30;;;;;;10308330;28;20514;-83
2021/01/22 00:48:30;;;;;;;1.30;1.20;;;10.50;94.60;;;;;;10320653;28;20207;-84
2021/01/22 00:53:32;;;;;;;1.13;1.13;;;10.50;94.20;;;;;;10345832;28;20222;-82
2021/01/22 00:58:35;;;;;;;1.10;1.00;;;10.40;94.60;;;;;;10308562;28;20204;-84
2021/01/22 01:04:00;;;;;;;1.30;1.17;;;10.40;94.70;;;;;;10302380;28;20203;-83
2021/01/22 01:09:07;;;;;;;1.20;1.20;;;10.40;94.60;;;;;;10286196;28;20673;-84
2021/01/22 01:14:20;;;;;;;1.13;1.13;;;10.30;94.50;;;;;;10284381;28;20314;-84
2021/01/22 01:19:24;;;;;;;1.20;1.20;;;10.30;94.20;;;;;;10334668;28;20289;-83
2021/01/22 01:24:26;;;;;;;1.23;1.23;;;10.30;94.20;;;;;;10334104;28;20221;-84
2021/01/22 01:29:28;;;;;;;0.90;0.90;;;10.30;93.90;;;;;;10301280;28;20211;-84
2021/01/22 01:34:30;;;;;;;2.13;1.20;;;10.30;94.30;;;;;;10318829;28;20219;-84
2021/01/22 01:39:31;;;;;;;0.90;0.90;;;10.30;93.80;;;;;;10319109;28;20207;-83
2021/01/22 01:44:34;;;;;;;1.30;1.20;;;10.30;94.00;;;;;;10332024;28;20231;-83
2021/01/22 01:49:36;;;;;;;1.00;1.00;;;10.30;93.70;;;;;;10302047;28;20582;-83
2021/01/22 01:54:38;;;;;;;1.20;1.20;;;10.40;93.70;;;;;;10318114;28;20255;-83
2021/01/22 01:59:41;;;;;;;1.17;1.17;;;10.40;93.70;;;;;;10301590;28;20242;-82
2021/01/22 02:04:43;;;;;;;1.20;1.10;;;10.40;93.60;;;;;;10318844;28;20299;-83
2021/01/22 02:09:44;;;;;;;1.73;0.90;;;10.50;93.40;;;;;;10302310;28;20291;-84
2021/01/22 02:14:47;;;;;;;1.00;1.00;;;10.50;93.00;;;;;;10318858;28;20286;-83
2021/01/22 02:20:03;;;;;;;1.30;1.20;;;10.60;93.00;;;;;;10318317;28;20207;-84
2021/01/22 02:25:08;;;;;;;2.13;1.23;;;10.60;92.70;;;;;;10320203;28;20222;-84
2021/01/22 02:30:11;;;;;;;1.97;1.30;;;10.70;92.50;;;;;;10304168;28;20310;-84
2021/01/22 02:35:16;;;;;;;1.57;1.47;;;10.60;92.50;;;;;;10338914;28;20267;-84
2021/01/22 02:40:20;;;;;;;1.53;1.20;;;10.70;92.50;;;;;;10309365;28;20223;-83
2021/01/22 02:45:23;;;;;;;1.27;1.10;;;10.60;92.60;;;;;;10314799;28;20239;-83
2021/01/22 02:50:32;;;;;;;1.33;1.23;;;10.60;92.40;;;;;;10353359;28;20321;-84
2021/01/22 02:55:35;;;;;;;1.80;1.40;;;10.50;92.60;;;;;;10319719;28;20214;-84
2021/01/22 03:00:43;;;;;;;1.67;1.20;;;10.50;92.80;;;;;;10309430;28;20664;-83
2021/01/22 03:05:45;;;;;;;1.90;1.40;;;10.50;92.30;;;;;;10325860;28;20269;-85
2021/01/22 03:10:49;;;;;;;2.17;1.30;;;10.50;92.40;;;;;;10329600;28;20241;-84
2021/01/22 03:15:52;;;;;;;2.63;1.30;;;10.40;92.60;;;;;;10339361;28;20211;-82
2021/01/22 03:20:54;;;;;;;3.27;1.57;;;10.30;92.50;;;;;;10344096;28;20238;-83
2021/01/22 03:25:55;;;;;;;1.40;1.30;;;10.20;92.60;;;;;;10321304;28;20794;-84
2021/01/22 03:30:58;;;;;;;1.60;1.37;;;10.10;92.50;;;;;;10322232;28;20227;-84
2021/01/22 03:35:59;;;;;;;4.23;1.40;;;10.10;92.40;;;;;;10304643;28;20290;-84
2021/01/22 03:41:01;;;;;;;1.70;1.30;;;10.20;92.10;;;;;;10303948;28;20235;-83
2021/01/22 03:46:03;;;;;;;2.23;1.40;;;10.10;92.40;;;;;;10303944;28;20265;-83
2021/01/22 03:51:05;;;;;;;1.10;1.10;;;10.10;92.20;;;;;;10302402;28;20255;-83
2021/01/22 03:56:07;;;;;;;1.57;1.47;;;10.10;92.00;;;;;;10325099;28;20230;-82
2021/01/22 04:01:09;;;;;;;2.57;1.60;;;10.00;92.20;;;;;;10327494;28;20592;-83
2021/01/22 04:06:11;;;;;;;1.47;1.37;;;9.90;92.60;;;;;;10322924;28;20223;-82
2021/01/22 04:11:13;;;;;;;1.70;1.60;;;9.90;92.70;;;;;;10306080;28;20235;-82
2021/01/22 04:16:16;;;;;;;1.60;1.37;;;9.90;92.30;;;;;;10337291;28;20191;-83
2021/01/22 04:21:17;;;;;;;1.70;1.60;;;9.80;92.60;;;;;;10301593;28;20326;-84
2021/01/22 04:26:19;;;;;;;4.23;2.00;;;9.90;92.00;;;;;;10336145;28;20223;-83
2021/01/22 04:31:21;;;;;;;2.47;1.90;;;9.90;92.20;;;;;;10302480;28;20711;-84
2021/01/22 04:36:23;;;;;;;1.90;1.63;;;9.90;92.20;;;;;;10344309;28;20274;-83
2021/01/22 04:41:25;;;;;;;1.90;1.80;;;9.90;91.90;;;;;;10344472;28;20223;-84
2021/01/22 04:46:28;;;;;;;1.20;1.10;;;9.90;91.80;;;;;;10302772;28;20254;-82
2021/01/22 04:51:30;;;;;;;1.83;1.20;;;9.90;91.60;;;;;;10333394;28;20219;-83
2021/01/22 04:56:36;;;;;;;3.07;1.50;;;9.90;91.50;;;;;;10310806;28;20643;-83
2021/01/22 05:01:39;;;;;;;1.47;1.37;;;10.00;90.90;;;;;;10317337;28;20257;-83
2021/01/22 05:06:41;;;;;;;1.43;1.10;;;10.00;90.90;;;;;;10318688;28;20273;-84
2021/01/22 05:11:43;;;;;;;1.67;1.20;;;10.10;90.60;;;;;;10337873;28;20278;-84
2021/01/22 05:16:59;;;;;;;2.13;1.70;;;10.10;90.80;;;;;;10340723;28;20238;-83
2021/01/22 05:22:02;;;;;;;1.63;1.17;;;10.10;90.90;;;;;;10336625;28;20221;-85
2021/01/22 05:27:06;;;;;;;1.33;1.23;;;10.20;91.00;;;;;;10317478;28;20318;-84
2021/01/22 05:32:27;;;;;;;1.10;0.80;;;10.20;91.00;;;;;;10347916;28;20233;-84
2021/01/22 05:37:28;;;;;;;1.40;1.30;;;10.20;91.20;;;;;;10358353;28;20209;-85
2021/01/22 05:42:46;;;;;;;1.40;1.10;;;10.20;91.20;;;;;;10339307;28;20230;-85
2021/01/22 05:47:48;;;;;;;1.10;1.00;;;10.10;91.30;;;;;;10307396;28;20288;-84
2021/01/22 05:52:50;;;;;;;1.60;1.50;;;10.10;91.30;;;;;;10323968;28;20227;-84
2021/01/22 05:57:51;;;;;;;1.30;0.90;;;10.10;91.60;;;;;;10359386;28;20207;-83
2021/01/22 06:02:54;;;;;;;2.23;1.03;;;10.10;91.60;;;;;;10343867;28;20689;-83
2021/01/22 06:08:07;;;;;;;1.20;1.10;;;10.20;91.40;;;;;;10345630;28;20223;-83
2021/01/22 06:13:09;;;;;;;1.50;1.20;;;10.20;91.40;;;;;;10313549;28;20238;-83
2021/01/22 06:18:15;;;;;;;1.03;1.00;;;10.20;91.20;;;;;;10329464;28;20294;-83
2021/01/22 06:23:17;;;;;;;1.00;1.00;;;10.20;91.30;;;;;;10340205;28;20215;-84
2021/01/22 06:28:20;;;;;;;1.10;0.90;;;10.30;91.20;;;;;;10340890;28;20230;-81
2021/01/22 06:33:24;;;;;;;1.17;1.07;;;10.30;91.10;;;;;;10351870;28;20581;-82
2021/01/22 06:38:29;;;;;;;1.77;0.80;;;10.30;91.00;;;;;;10323880;28;20234;-82
2021/01/22 06:43:31;;;;;;;1.70;1.20;;;10.30;91.00;;;;;;10317454;28;20219;-83
2021/01/22 06:48:52;;;;;;;2.10;1.30;;;10.20;91.30;;;;;;10306127;28;20199;-83
2021/01/22 06:54:08;;;;;;;1.77;1.67;;;10.30;91.00;;;;;;10321319;28;20281;-83
2021/01/22 06:59:37;;;;;;;1.47;1.10;;;10.20;91.00;;;;;;10334357;28;20577;-84
2021/01/22 07:04:40;;;;;;;1.00;1.00;;;10.30;91.10;;;;;;10338789;28;20530;-85
2021/01/22 07:09:52;;;;;;;2.07;0.80;;;10.30;90.90;;;;;;10327589;28;20217;-85
2021/01/22 07:14:53;;;;;;;1.50;1.40;;;10.20;91.00;;;;;;10311876;28;20211;-84
2021/01/22 07:20:00;;;;;;;1.27;1.17;;;10.10;91.00;;;;;;10327154;28;20330;-84
2021/01/22 07:25:04;;;;;;;1.70;1.60;;;10.10;91.00;;;;;;10351603;28;20706;-83
2021/01/22 07:30:10;;;;;;;2.30;1.10;;;10.10;90.90;;;;;;10330019;28;20269;-82
2021/01/22 07:35:20;;;;;;;1.13;1.03;;;10.10;90.90;;;;;;10363368;28;20194;-83
2021/01/22 07:40:21;;;;;;;1.77;1.07;;;10.10;91.00;;;;;;10354367;28;20285;-82
2021/01/22 07:45:23;;;;;;;1.53;1.10;;;10.10;90.90;;;;;;10338615;28;20226;-82
2021/01/22 07:50:31;;;;;;;1.63;1.30;;;10.10;90.70;;;;;;10315879;28;20321;-81
2021/01/22 07:55:33;;;;;;;1.73;1.10;;;10.10;90.90;;;;;;10341771;28;20199;-82
2021/01/22 08:00:38;;;;;;;2.00;1.30;;;10.10;91.00;;;;;;10344147;28;20294;-82
2021/01/22 08:05:41;;;;;;;4.70;1.40;;;10.10;90.80;;;;;;10320573;28;20687;-84
2021/01/22 08:10:43;;;;;;;1.20;1.10;;;10.20;90.80;;;;;;10305991;28;20283;-83
2021/01/22 08:15:45;;;;;;;1.77;1.17;;;10.20;90.60;;;;;;10276535;28;20196;-82
2021/01/22 08:20:51;;;;;;;1.27;1.17;;;10.40;90.70;;;;;;10292152;28;20228;-83
2021/01/22 08:25:58;;;;;;;1.23;1.20;;;10.50;90.70;;;;;;10292402;28;20249;-83
2021/01/22 08:31:00;;;;;;;1.10;1.10;;;10.60;90.70;;;;;;10335431;28;20614;-83
2021/01/22 08:36:05;;;;;;;1.23;1.13;;;10.60;90.70;;;;;;10326729;28;20203;-83
2021/01/22 08:41:06;;;;;;;1.33;0.90;;;10.70;90.80;;;;;;10307497;28;20312;-82
2021/01/22 08:46:11;;;;;;;1.50;1.40;;;10.70;90.70;;;;;;10319126;28;20215;-82
2021/01/22 08:51:14;;;;;;;1.37;1.37;;;10.90;90.10;;;;;;10310848;28;20674;-82
2021/01/22 08:56:17;;;;;;;1.70;1.10;;;11.00;90.00;;;;;;10317534;28;20202;-81
2021/01/22 09:01:22;;;;;;;1.10;1.10;;;11.10;89.30;;;;;;10320101;28;20700;-84
2021/01/22 09:06:48;;;;;;;1.00;1.00;;;11.20;90.00;;;;;;10283994;28;20252;-83
2021/01/22 09:11:50;;;;;;;2.87;1.10;;;11.30;89.40;;;;;;10295776;28;20269;-82
2021/01/22 09:16:52;;;;;;;1.70;1.57;;;11.30;89.20;;;;;;10325352;28;20582;-85
2021/01/22 09:21:58;;;;;;;1.10;1.00;;;11.30;88.50;;;;;;10335910;28;20219;-85
2021/01/22 09:27:00;;;;;;;1.73;1.20;;;11.30;89.00;;;;;;10334196;28;20219;-85
2021/01/22 09:32:07;;;;;;;1.30;1.20;;;11.40;88.60;;;;;;10362097;28;20263;-84
2021/01/22 09:37:09;;;;;;;2.07;1.40;;;11.40;89.00;;;;;;10320425;28;20214;-82
2021/01/22 09:42:11;;;;;;;1.30;1.20;;;11.50;88.30;;;;;;10314565;28;20226;-82
2021/01/22 09:47:13;;;;;;;3.83;1.50;;;11.60;88.20;;;;;;10313887;28;20308;-82
2021/01/22 09:52:16;;;;;;;4.03;3.07;;;11.80;88.30;;;;;;10298645;28;20699;-81
2021/01/22 09:57:17;;;;;;;1.83;1.73;;;11.90;87.00;;;;;;10299243;28;20547;-82
2021/01/22 10:02:19;;;;;;;2.10;1.10;;;12.00;87.00;;;;;;10315323;28;20377;-82
2021/01/22 10:07:23;;;;;;;1.53;1.40;;;12.20;86.10;;;;;;10343333;28;20254;-82
2021/01/22 10:12:29;;;;;;;1.33;1.23;;;12.20;86.90;;;;;;10295167;28;20650;-81
2021/01/22 10:17:31;;;;;;;2.50;1.80;;;12.40;85.30;;;;;;10331270;28;20238;-81
2021/01/22 10:22:33;;;;;;;4.20;1.60;;;12.60;85.60;;;;;;10291313;28;20243;-82
2021/01/22 10:27:35;;;;;;;1.33;1.27;;;12.60;85.10;;;;;;10338833;28;20250;-81
2021/01/22 10:32:37;;;;;;;1.63;1.53;;;12.70;84.70;;;;;;10371703;28;20464;-82
2021/01/22 10:37:40;;;;;;;1.50;1.40;;;12.70;84.70;;;;;;10344620;28;20203;-79
2021/01/22 10:42:42;;;;;;;1.47;1.37;;;12.70;85.40;;;;;;10340433;28;20254;-81
2021/01/22 10:47:43;;;;;;;1.37;1.20;;;12.70;84.60;;;;;;10322025;28;20306;-81
2021/01/22 10:52:46;;;;;;;1.17;1.07;;;12.70;84.50;;;;;;10319951;28;20229;-82
2021/01/22 10:57:47;;;;;;;1.37;1.27;;;12.80;84.50;;;;;;10336761;28;20606;-82
2021/01/22 11:02:49;;;;;;;1.63;1.40;;;12.80;85.10;;;;;;10336706;28;20604;-82
2021/01/22 11:07:52;;;;;;;1.37;1.20;;;12.90;84.40;;;;;;10339523;28;20241;-82
2021/01/22 11:12:54;;;;;;;1.20;1.10;;;13.00;83.80;;;;;;10320613;28;20231;-82
2021/01/22 11:17:55;;;;;;;2.50;1.20;;;13.00;83.40;;;;;;10336307;28;20263;-79
2021/01/22 11:22:58;;;;;;;1.10;1.07;;;13.20;83.60;;;;;;10334101;28;20223;-81
2021/01/22 11:27:59;;;;;;;1.27;1.20;;;13.30;83.10;;;;;;10315562;28;20882;-80
2021/01/22 11:33:01;;;;;;;1.67;1.43;;;13.50;82.40;;;;;;10331982;28;20286;-81
2021/01/22 11:38:04;;;;;;;1.00;1.00;;;13.50;81.50;;;;;;10313842;28;20719;-82
2021/01/22 11:43:06;;;;;;;2.00;1.60;;;13.50;81.70;;;;;;10314887;28;20223;-80
2021/01/22 11:48:09;;;;;;;1.10;1.10;;;13.50;83.60;;;;;;10314456;28;20227;-82
2021/01/22 11:53:11;;;;;;;5.60;1.20;;;13.70;84.40;;;;;;10315362;28;20231;-80
2021/01/22 11:58:16;;;;;;;2.07;1.13;;;13.80;83.30;;;;;;10332344;28;20199;-81
2021/01/22 12:03:18;;;;;;;1.50;1.30;;;13.90;80.90;;;;;;10332397;28;20219;-81
2021/01/22 12:08:20;;;;;;;1.20;1.20;;;13.80;81.80;;;;;;10314667;28;20568;-82
2021/01/22 12:13:22;;;;;;;1.70;1.60;;;13.80;80.80;;;;;;10331213;28;20227;-80
2021/01/22 12:18:24;;;;;;;1.50;1.40;;;13.80;82.00;;;;;;10315750;28;20215;-83
2021/01/22 12:23:26;;;;;;;1.70;1.60;;;13.70;80.10;;;;;;10350347;28;20222;-83
2021/01/22 12:28:28;;;;;;;2.60;1.30;;;13.70;81.30;;;;;;10315611;28;20674;-81
2021/01/22 12:33:30;;;;;;;1.57;1.47;;;13.80;78.60;;;;;;10301293;28;20238;-80
2021/01/22 12:38:32;;;;;;;1.20;1.10;;;13.80;77.80;;;;;;10336421;28;20281;-81
2021/01/22 12:43:34;;;;;;;2.37;1.43;;;13.80;77.80;;;;;;10382846;28;20218;-81
2021/01/22 12:48:39;;;;;;;1.90;1.00;;;13.80;77.00;;;;;;10324938;28;20227;-81
2021/01/22 12:53:45;;;;;;;1.70;1.60;;;13.70;76.80;;;;;;10336246;28;20230;-84
2021/01/22 12:58:47;;;;;;;1.30;1.20;;;13.70;75.90;;;;;;10303548;28;20993;-82
2021/01/22 13:03:53;;;;;;;2.00;1.40;;;13.60;77.10;;;;;;10318634;28;20215;-83
2021/01/22 13:08:56;;;;;;;1.00;1.00;;;13.60;77.40;;;;;;10300414;28;20607;-80
2021/01/22 13:13:57;;;;;;;2.27;1.90;;;13.70;76.40;;;;;;10336085;28;20231;-78
2021/01/22 13:19:01;;;;;;;1.83;1.73;;;13.80;78.80;;;;;;10336389;28;20196;-78
2021/01/22 13:24:07;;;;;;;1.80;1.20;;;13.80;77.60;;;;;;10334340;28;20306;-79
2021/01/22 13:29:09;;;;;;;1.67;1.07;;;13.80;78.50;;;;;;10313696;28;20210;-79
2021/01/22 13:34:11;;;;;;;1.03;1.00;;;13.80;76.60;;;;;;10322896;28;20240;-79
2021/01/22 13:39:13;;;;;;;2.37;2.10;;;13.80;78.60;;;;;;10300889;28;20227;-79
2021/01/22 13:44:15;;;;;;;1.50;1.40;;;13.90;80.50;;;;;;10296883;28;20270;-80
2021/01/22 13:49:17;;;;;;;3.60;2.57;;;13.90;79.70;;;;;;10302089;28;20207;-80
2021/01/22 13:54:20;;;;;;;2.27;2.10;;;13.70;83.90;;;;;;10291180;28;20250;-80
2021/01/22 13:59:21;;;;;;;2.40;2.30;;;13.30;84.80;;;;;;10293349;28;20203;-81
2021/01/22 14:04:23;;;;;;;3.00;2.80;;;12.90;86.40;;;;;;10311480;28;20254;-81
2021/01/22 14:09:25;;;;;;;2.57;2.37;;;12.60;87.50;;;;;;10327906;28;20209;-79
2021/01/22 14:14:27;;;;;;;3.70;3.10;;;12.20;88.50;;;;;;10326493;28;20257;-80
2021/01/22 14:19:29;;;;;;;3.30;3.07;;;12.00;89.20;;;;;;10310158;28;20275;-80
2021/01/22 14:24:31;;;;;;;3.43;3.20;;;11.70;90.20;;;;;;10327621;28;20227;-81
2021/01/22 14:29:33;;;;;;;3.40;3.17;;;11.50;91.00;;;;;;10328251;28;20289;-81
2021/01/22 14:34:35;;;;;;;3.73;3.50;;;11.30;92.00;;;;;;10310524;28;20227;-80
2021/01/22 14:39:38;;;;;;;3.43;3.23;;;11.00;92.40;;;;;;10310800;28;20726;-80
2021/01/22 14:44:39;;;;;;;3.30;3.13;;;10.80;93.30;;;;;;10321057;28;20304;-81
2021/01/22 14:49:41;;;;;;;4.27;3.97;;;10.40;93.60;;;;;;10327094;28;20325;-79
2021/01/22 14:54:45;;;;;;;4.17;3.87;;;10.20;94.20;;;;;;10317087;28;20614;-81
2021/01/22 14:59:47;;;;;;;4.93;4.53;;;10.10;94.80;;;;;;10334030;28;20211;-80
2021/01/22 15:04:49;;;;;;;3.70;3.50;;;9.90;95.80;;;;;;10335352;28;20302;-81
2021/01/22 15:09:51;;;;;;;3.00;2.90;;;9.90;96.20;;;;;;10316608;28;20257;-80
2021/01/22 15:14:53;;;;;;;2.80;2.60;;;9.80;95.90;;;;;;10355170;28;20194;-79
2021/01/22 15:19:55;;;;;;;2.67;2.47;;;9.80;95.90;;;;;;10326159;28;20289;-81
2021/01/22 15:24:57;;;;;;;2.83;2.63;;;9.60;95.70;;;;;;10320185;28;20241;-80
2021/01/22 15:29:59;;;;;;;3.00;2.80;;;9.60;95.50;;;;;;10323660;28;20239;-79
2021/01/22 15:35:00;;;;;;;3.23;2.93;;;9.50;95.90;;;;;;10316962;28;20225;-80
2021/01/22 15:40:12;;;;;;;3.20;3.00;;;9.40;96.00;;;;;;10317710;28;20310;-81
2021/01/22 15:45:15;;;;;;;3.90;3.70;;;9.40;96.10;;;;;;10333015;28;20220;-79
2021/01/22 15:50:16;;;;;;;3.53;3.33;;;9.30;96.50;;;;;;10331242;28;20230;-80
2021/01/22 15:55:19;;;;;;;4.47;4.07;;;9.20;97.30;;;;;;10313560;28;20199;-81
2021/01/22 16:00:21;;;;;;;4.67;4.37;;;9.10;98.20;;;;;;10309167;28;20226;-80
2021/01/22 16:05:23;;;;;;;4.57;4.27;;;8.90;98.60;;;;;;10291708;28;20223;-80
2021/01/22 16:10:26;;;;;;;5.80;5.40;;;8.70;98.50;;;;;;10314501;28;21203;-81
2021/01/22 16:15:28;;;;;;;9.90;6.23;;;8.60;99.60;;;;;;10292144;28;20203;-80
2021/01/22 16:20:29;;;;;;;6.30;5.90;;;8.50;99.90;;;;;;10300559;28;20696;-80
2021/01/22 16:25:32;;;;;;;6.70;6.20;;;8.40;99.90;;;;;;10302669;28;20258;-81
2021/01/22 16:30:34;;;;;;;7.60;7.10;;;8.30;99.90;;;;;;10313187;28;20726;-80
2021/01/22 16:35:35;;;;;;;7.70;7.20;;;8.20;99.90;;;;;;10320261;28;20226;-80
2021/01/22 16:40:38;;;;;;;8.87;8.27;;;8.20;99.90;;;;;;10339391;28;20643;-80
2021/01/22 16:45:39;;;;;;;8.40;7.80;;;8.20;99.90;;;;;;10340540;28;20219;-80
2021/01/22 16:50:42;;;;;;;9.10;8.50;;;8.20;99.90;;;;;;10328449;28;20310;-81
2021/01/22 16:55:44;;;;;;;10.33;9.53;;;8.20;99.90;;;;;;10325203;28;20203;-82
2021/01/22 17:00:46;;;;;;;11.20;10.30;;;8.10;99.90;;;;;;10364653;28;20230;-81
2021/01/22 17:05:48;;;;;;;10.03;9.23;;;8.10;99.90;;;;;;10358757;28;20283;-81
2021/01/22 17:10:50;;;;;;;9.60;8.90;;;8.20;99.90;;;;;;10320202;28;20234;-81
2021/01/22 17:15:52;;;;;;;9.97;9.27;;;8.20;99.90;;;;;;10366412;28;20202;-81
2021/01/22 17:20:53;;;;;;;8.90;8.23;;;8.20;99.90;;;;;;10330445;28;20227;-81
2021/01/22 17:25:56;;;;;;;8.10;7.50;;;8.20;99.90;;;;;;10328731;28;20225;-82
2021/01/22 17:30:58;;;;;;;7.87;7.27;;;8.20;99.90;;;;;;10353795;28;20219;-81
2021/01/22 17:35:59;;;;;;;7.70;7.10;;;8.20;99.90;;;;;;10335375;28;20203;-82
2021/01/22 17:41:02;;;;;;;7.50;6.90;;;8.20;99.90;;;;;;10349760;28;20226;-81
2021/01/22 17:46:04;;;;;;;6.70;6.20;;;8.20;99.90;;;;;;10332482;28;20227;-81
2021/01/22 17:51:06;;;;;;;7.07;6.50;;;8.20;99.90;;;;;;10314233;28;20302;-83
2021/01/22 17:56:08;;;;;;;6.30;5.90;;;8.20;99.90;;;;;;10338421;28;20230;-83
2021/01/22 18:01:10;;;;;;;6.23;5.83;;;8.20;99.90;;;;;;10355140;28;20223;-82
2021/01/22 18:06:12;;;;;;;5.90;5.40;;;8.20;99.90;;;;;;10336297;28;20253;-81
2021/01/22 18:11:15;;;;;;;6.53;6.03;;;8.30;99.90;;;;;;10332906;28;20230;-82
2021/01/22 18:16:16;;;;;;;6.63;6.10;;;8.20;99.90;;;;;;10333121;28;20204;-82
2021/01/22 18:21:18;;;;;;;5.80;5.33;;;8.20;99.90;;;;;;10326151;28;20254;-81
2021/01/22 18:26:22;;;;;;;5.80;5.20;;;8.20;99.90;;;;;;10272108;28;20208;-82
2021/01/22 18:31:24;;;;;;;5.07;4.67;;;8.30;99.90;;;;;;10264195;28;20816;-82
2021/01/22 18:36:26;;;;;;;4.77;4.43;;;8.30;99.90;;;;;;10301599;28;20195;-85
2021/01/22 18:41:28;;;;;;;5.73;5.33;;;8.40;99.90;;;;;;10305224;28;20223;-84
2021/01/22 18:46:30;;;;;;;4.90;4.60;;;8.40;99.90;;;;;;10326676;28;20285;-83
2021/01/22 18:51:32;;;;;;;5.70;5.30;;;8.30;99.90;;;;;;10355348;28;20707;-81
2021/01/22 18:56:37;;;;;;;5.70;5.30;;;8.30;99.90;;;;;;10360535;28;20194;-83
2021/01/22 19:01:39;;;;;;;6.93;6.33;;;8.20;99.90;;;;;;10364114;28;20254;-82
2021/01/22 19:06:41;;;;;;;6.40;5.90;;;8.20;99.90;;;;;;10342034;28;20309;-82
2021/01/22 19:11:44;;;;;;;6.60;6.10;;;8.20;99.90;;;;;;10310166;28;20265;-83
2021/01/22 19:16:46;;;;;;;7.00;6.47;;;8.20;99.90;;;;;;10302140;28;20295;-83
2021/01/22 19:21:47;;;;;;;6.67;6.17;;;8.20;99.90;;;;;;10302550;28;20231;-82
2021/01/22 19:26:50;;;;;;;8.00;7.40;;;8.20;99.90;;;;;;10322015;28;20234;-82
2021/01/22 19:31:52;;;;;;;8.60;7.90;;;8.20;99.90;;;;;;10319633;28;20795;-82
2021/01/22 19:36:53;;;;;;;7.97;7.37;;;8.20;99.90;;;;;;10307259;28;20219;-81
2021/01/22 19:41:56;;;;;;;8.27;7.57;;;8.10;99.90;;;;;;10314305;28;20277;-82
2021/01/22 19:46:58;;;;;;;7.50;6.90;;;8.20;99.90;;;;;;10315304;28;20215;-82
2021/01/22 19:52:01;;;;;;;7.77;6.97;;;8.20;99.90;;;;;;10334161;28;20310;-84
2021/01/22 19:57:05;;;;;;;7.40;6.80;;;8.20;99.90;;;;;;10326330;28;20254;-81
2021/01/22 20:02:07;;;;;;;7.67;6.97;;;8.20;99.90;;;;;;10360600;28;20237;-82
2021/01/22 20:07:08;;;;;;;6.80;6.30;;;8.20;99.90;;;;;;10359279;28;20265;-82
2021/01/22 20:12:11;;;;;;;8.23;7.47;;;8.20;99.90;;;;;;10372004;28;20232;-81
2021/01/22 20:17:13;;;;;;;8.23;7.53;;;8.20;99.90;;;;;;10347278;28;20202;-82
2021/01/22 20:22:14;;;;;;;8.43;7.80;;;8.20;99.90;;;;;;10360768;28;20303;-81
2021/01/22 20:27:17;;;;;;;8.60;7.80;;;8.20;99.90;;;;;;10372090;28;20222;-82
2021/01/22 20:32:19;;;;;;;6.30;5.77;;;8.20;99.90;;;;;;10337048;28;20262;-82
2021/01/22 20:37:20;;;;;;;10.20;9.30;;;8.20;99.90;;;;;;10339880;28;20203;-85
2021/01/22 20:42:23;;;;;;;9.77;8.90;;;8.20;99.90;;;;;;10349347;28;20242;-81
2021/01/22 20:47:25;;;;;;;8.37;7.67;;;8.20;99.90;;;;;;10318031;28;20310;-81
2021/01/22 20:52:27;;;;;;;9.27;8.57;;;8.20;99.90;;;;;;10296714;28;20265;-82
2021/01/22 20:57:29;;;;;;;8.97;8.17;;;8.20;99.90;;;;;;10315233;28;20195;-82
2021/01/22 21:02:31;;;;;;;9.07;8.47;;;8.20;99.90;;;;;;10284845;28;20223;-82
2021/01/22 21:07:33;;;;;;;9.10;8.40;;;8.10;99.90;;;;;;10303053;28;20223;-82
2021/01/22 21:12:35;;;;;;;8.90;8.10;;;8.00;99.90;;;;;;10268209;28;20232;-82
2021/01/22 21:17:37;;;;;;;10.80;9.80;;;7.80;99.90;;;;;;10246588;28;20651;-81
2021/01/22 21:22:39;;;;;;;7.93;7.33;;;7.70;99.90;;;;;;10273966;28;20767;-82
2021/01/22 21:27:41;;;;;;;10.10;9.30;;;7.50;99.90;;;;;;10283423;28;20208;-82
2021/01/22 21:32:43;;;;;;;7.93;7.33;;;7.40;99.90;;;;;;10272230;28;20231;-82
2021/01/22 21:37:45;;;;;;;8.43;7.83;;;7.30;99.90;;;;;;10245967;28;20335;-82
2021/01/22 21:42:47;;;;;;;7.77;7.17;;;7.30;99.90;;;;;;10257438;28;20251;-82
2021/01/22 21:47:49;;;;;;;7.50;7.00;;;7.30;99.90;;;;;;10271180;28;20227;-81
2021/01/22 21:52:51;;;;;;;7.90;7.30;;;7.30;99.90;;;;;;10259806;28;20790;-82
2021/01/22 21:57:54;;;;;;;5.70;5.30;;;7.20;99.90;;;;;;10271044;28;20646;-85
2021/01/22 22:02:55;;;;;;;5.43;5.13;;;7.10;99.90;;;;;;10291106;28;20231;-81
2021/01/22 22:07:57;;;;;;;4.30;4.00;;;7.00;99.90;;;;;;10312638;28;20291;-82
2021/01/22 22:12:59;;;;;;;4.40;4.10;;;6.90;99.90;;;;;;10301341;28;20261;-81
2021/01/22 22:18:01;;;;;;;4.70;4.47;;;6.70;99.90;;;;;;10277084;28;20691;-82
2021/01/22 22:23:03;;;;;;;6.30;6.00;;;6.50;99.90;;;;;;10297380;28;20716;-84
2021/01/22 22:28:10;;;;;;;5.20;5.00;;;6.40;99.90;;;;;;10318404;28;20234;-82
2021/01/22 22:33:12;;;;;;;5.17;4.97;;;6.30;99.90;;;;;;10303485;28;20703;-82
2021/01/22 22:38:14;;;;;;;6.70;6.40;;;6.20;99.90;;;;;;10299028;28;20294;-82
2021/01/22 22:43:16;;;;;;;6.97;6.67;;;6.10;99.90;;;;;;10346272;28;20293;-80
2021/01/22 22:48:18;;;;;;;7.53;7.13;;;5.90;99.90;;;;;;10283781;28;20231;-81
2021/01/22 22:53:19;;;;;;;6.87;6.57;;;5.80;99.90;;;;;;10311821;28;20239;-83
2021/01/22 22:58:22;;;;;;;7.13;6.83;;;5.50;99.90;;;;;;10334340;28;20198;-82
2021/01/22 23:03:24;;;;;;;5.80;5.60;;;5.30;99.90;;;;;;10369274;28;20246;-84
2021/01/22 23:08:25;;;;;;;5.90;5.70;;;5.10;99.90;;;;;;10368513;28;20226;-84
2021/01/22 23:13:28;;;;;;;5.93;5.73;;;5.00;99.90;;;;;;10383329;23;20289;-80
2021/01/22 23:18:29;;;;;;;5.63;5.43;;;4.90;99.90;;;;;;10356533;28;20195;-81
2021/01/22 23:23:31;;;;;;;4.90;4.70;;;4.80;99.90;;;;;;10352056;28;20600;-80
2021/01/22 23:28:34;;;;;;;5.07;4.87;;;4.70;99.90;;;;;;10354197;28;20234;-80
2021/01/22 23:33:35;;;;;;;4.63;4.50;;;4.60;99.90;;;;;;10336086;28;20236;-80
2021/01/22 23:38:37;;;;;;;4.37;4.27;;;4.60;99.90;;;;;;10352741;28;20198;-81
2021/01/22 23:43:40;;;;;;;4.77;4.57;;;4.50;99.90;;;;;;10337278;28;20234;-81
2021/01/22 23:48:42;;;;;;;5.10;4.90;;;4.40;99.90;;;;;;10371213;28;20236;-81
2021/01/22 23:53:43;;;;;;;4.47;4.37;;;4.40;99.90;;;;;;10392607;28;20221;-81
2021/01/22 23:58:46;;;;;;;4.90;4.70;;;4.40;99.90;;;;;;10377737;28;20186;-81
